createdAt,value
2017-12-25T00:00:06.103Z,10.17
2017-12-25T00:02:05.076Z,10.23
2017-12-25T00:03:04.589Z,10.18
2017-12-25T00:05:03.528Z,10.21
2017-12-25T00:06:02.007Z,10.23
2017-12-25T00:08:00.954Z,10.11
2017-12-25T00:09:00.042Z,10.23
2017-12-25T00:10:58.478Z,10.10
2017-12-25T00:11:57.933Z,10.02
2017-12-25T00:13:55.887Z,9.99
2017-12-25T00:14:55.883Z,9.96
2017-12-25T00:16:53.961Z,10.00
2017-12-25T00:17:53.926Z,9.99
2017-12-25T00:19:52.396Z,10.02
2017-12-25T00:20:52.418Z,10.07
2017-12-25T00:22:50.823Z,10.00
2017-12-25T00:23:49.804Z,10.00
2017-12-25T00:25:48.288Z,10.02
2017-12-25T00:26:47.923Z,10.00
2017-12-25T00:28:46.343Z,10.02
2017-12-25T00:29:45.866Z,10.14
2017-12-25T00:31:42.261Z,10.08
2017-12-25T00:32:41.791Z,10.13
2017-12-25T00:34:41.206Z,10.18
2017-12-25T00:35:39.673Z,10.17
2017-12-25T00:37:37.725Z,10.07
2017-12-25T00:38:38.618Z,10.14
2017-12-25T00:40:36.202Z,10.03
2017-12-25T00:41:36.726Z,10.00
2017-12-25T00:43:33.733Z,10.00
2017-12-25T00:44:33.699Z,10.02
2017-12-25T00:46:32.173Z,10.05
2017-12-25T00:47:31.640Z,10.03
2017-12-25T00:49:29.083Z,10.03
2017-12-25T00:50:28.569Z,10.00
2017-12-25T00:52:24.536Z,10.02
2017-12-25T00:53:24.500Z,10.07
2017-12-25T00:55:22.974Z,9.96
2017-12-25T00:56:23.466Z,10.03
2017-12-25T00:58:20.558Z,9.93
2017-12-25T00:59:20.517Z,9.99
2017-12-25T01:01:19.454Z,9.99
2017-12-25T01:02:18.441Z,9.98
2017-12-25T01:04:16.494Z,9.96
2017-12-25T01:05:17.373Z,9.95
2017-12-25T01:07:14.941Z,10.07
2017-12-25T01:08:14.512Z,10.03
2017-12-25T01:10:13.951Z,10.03
2017-12-25T01:11:13.463Z,10.02
2017-12-25T01:13:11.423Z,9.95
2017-12-25T01:14:10.493Z,9.89
2017-12-25T01:16:08.553Z,9.90
2017-12-25T01:17:09.378Z,9.92
2017-12-25T01:19:06.484Z,9.93
2017-12-25T01:20:07.424Z,9.85
2017-12-25T01:22:04.462Z,9.80
2017-12-25T01:23:04.437Z,9.89
2017-12-25T01:25:01.391Z,9.80
2017-12-25T01:26:00.392Z,9.78
2017-12-25T01:27:58.361Z,9.70
2017-12-25T01:28:58.409Z,9.67
2017-12-25T01:30:56.783Z,9.75
2017-12-25T01:31:56.781Z,9.71
2017-12-25T01:33:54.254Z,9.72
2017-12-25T01:34:54.199Z,9.70
2017-12-25T01:36:53.675Z,9.77
2017-12-25T01:37:52.125Z,9.70
2017-12-25T01:39:50.082Z,9.74
2017-12-25T01:40:50.088Z,9.72
2017-12-25T01:42:48.558Z,9.80
2017-12-25T01:43:48.124Z,9.81
2017-12-25T01:45:46.584Z,9.82
2017-12-25T01:46:47.085Z,9.81
2017-12-25T01:48:45.184Z,9.84
2017-12-25T01:49:44.243Z,9.85
2017-12-25T01:51:42.235Z,9.84
2017-12-25T01:52:42.701Z,9.84
2017-12-25T01:54:40.671Z,9.85
2017-12-25T01:55:40.254Z,9.90
2017-12-25T01:57:36.214Z,9.92
2017-12-25T01:58:36.182Z,9.84
2017-12-25T02:00:43.244Z,9.89
2017-12-25T02:02:59.172Z,9.98
2017-12-25T02:03:59.692Z,9.85
2017-12-25T02:05:57.122Z,9.85
2017-12-25T02:06:57.108Z,9.89
2017-12-25T02:08:56.071Z,9.99
2017-12-25T02:09:55.162Z,9.85
2017-12-25T02:11:53.121Z,9.92
2017-12-25T02:12:54.536Z,9.92
2017-12-25T02:14:51.562Z,9.90
2017-12-25T02:15:51.540Z,9.82
2017-12-25T02:17:48.968Z,9.90
2017-12-25T02:18:48.961Z,9.88
2017-12-25T02:20:47.434Z,9.99
2017-12-25T02:21:46.863Z,9.88
2017-12-25T02:23:45.832Z,9.96
2017-12-25T02:24:44.813Z,9.92
2017-12-25T02:26:43.741Z,9.95
2017-12-25T02:27:42.738Z,9.96
2017-12-25T02:29:41.690Z,9.89
2017-12-25T02:30:40.668Z,9.96
2017-12-25T02:32:38.645Z,9.93
2017-12-25T02:33:39.163Z,9.90
2017-12-25T02:35:36.587Z,9.90
2017-12-25T02:36:36.543Z,9.99
2017-12-25T02:38:35.007Z,9.88
2017-12-25T02:39:34.588Z,9.92
2017-12-25T02:41:32.660Z,9.88
2017-12-25T02:42:32.683Z,9.84
2017-12-25T02:44:31.124Z,9.89
2017-12-25T02:45:31.602Z,9.88
2017-12-25T02:47:30.641Z,9.85
2017-12-25T02:48:29.149Z,9.88
2017-12-25T02:50:26.700Z,9.85
2017-12-25T02:51:26.693Z,9.78
2017-12-25T02:53:25.154Z,9.80
2017-12-25T02:54:24.758Z,9.78
2017-12-25T02:56:23.308Z,9.85
2017-12-25T02:57:22.816Z,9.80
2017-12-25T02:59:22.283Z,9.80
2017-12-25T03:00:21.288Z,9.82
2017-12-25T03:02:20.237Z,9.92
2017-12-25T03:03:19.728Z,9.88
2017-12-25T03:05:16.859Z,9.89
2017-12-25T03:06:16.874Z,9.81
2017-12-25T03:08:15.327Z,9.90
2017-12-25T03:09:14.825Z,9.85
2017-12-25T03:11:13.284Z,9.90
2017-12-25T03:12:12.708Z,9.89
2017-12-25T03:14:12.742Z,9.92
2017-12-25T03:15:10.761Z,9.89
2017-12-25T03:17:09.722Z,9.82
2017-12-25T03:18:09.720Z,9.90
2017-12-25T03:20:06.774Z,9.93
2017-12-25T03:21:06.787Z,9.92
2017-12-25T03:23:04.904Z,9.88
2017-12-25T03:24:05.743Z,9.89
2017-12-25T03:26:04.308Z,9.78
2017-12-25T03:27:02.876Z,9.82
2017-12-25T03:29:01.842Z,9.75
2017-12-25T03:30:01.853Z,9.71
2017-12-25T03:31:59.409Z,9.71
2017-12-25T03:32:59.001Z,9.67
2017-12-25T03:34:57.078Z,9.72
2017-12-25T03:35:57.049Z,9.70
2017-12-25T03:37:55.425Z,9.67
2017-12-25T03:38:54.502Z,9.63
2017-12-25T03:40:49.911Z,9.67
2017-12-25T03:41:49.913Z,9.70
2017-12-25T03:43:48.890Z,9.70
2017-12-25T03:44:48.866Z,9.66
2017-12-25T03:46:46.026Z,9.77
2017-12-25T03:47:46.052Z,9.82
2017-12-25T03:49:45.487Z,9.78
2017-12-25T03:50:44.486Z,9.85
2017-12-25T03:52:41.941Z,9.77
2017-12-25T03:53:41.945Z,9.90
2017-12-25T03:55:40.382Z,9.85
2017-12-25T03:56:39.872Z,9.90
2017-12-25T03:58:37.826Z,9.96
2017-12-25T03:59:37.806Z,9.85
2017-12-25T04:01:37.761Z,9.88
2017-12-25T04:02:37.266Z,9.92
2017-12-25T04:04:32.712Z,9.89
2017-12-25T04:05:32.702Z,9.84
2017-12-25T04:07:30.766Z,9.89
2017-12-25T04:08:31.672Z,9.85
2017-12-25T04:10:28.699Z,9.90
2017-12-25T04:11:28.726Z,9.84
2017-12-25T04:13:27.173Z,9.85
2017-12-25T04:14:26.784Z,9.81
2017-12-25T04:16:25.250Z,9.80
2017-12-25T04:17:24.690Z,9.84
2017-12-25T04:19:23.670Z,9.88
2017-12-25T04:20:24.671Z,9.84
2017-12-25T04:22:20.717Z,9.88
2017-12-25T04:23:20.728Z,9.92
2017-12-25T04:25:19.158Z,9.90
2017-12-25T04:26:18.723Z,9.84
2017-12-25T04:28:17.688Z,9.93
2017-12-25T04:29:16.696Z,9.96
2017-12-25T04:31:14.573Z,9.98
2017-12-25T04:32:15.121Z,9.90
2017-12-25T04:34:13.052Z,9.90
2017-12-25T04:35:12.496Z,9.92
2017-12-25T04:37:11.470Z,9.99
2017-12-25T04:38:10.547Z,9.96
2017-12-25T04:40:08.480Z,9.93
2017-12-25T04:41:08.483Z,9.89
2017-12-25T04:43:06.961Z,9.93
2017-12-25T04:44:06.512Z,9.96
2017-12-25T04:46:05.494Z,9.90
2017-12-25T04:47:04.548Z,10.02
2017-12-25T04:49:03.522Z,10.05
2017-12-25T04:50:03.507Z,9.90
2017-12-25T04:52:02.072Z,9.99
2017-12-25T04:53:00.669Z,9.99
2017-12-25T04:55:00.112Z,10.00
2017-12-25T04:55:59.634Z,10.02
2017-12-25T04:57:56.637Z,10.02
2017-12-25T04:58:56.643Z,10.02
2017-12-25T05:00:54.579Z,10.02
2017-12-25T05:01:54.549Z,9.99
2017-12-25T05:03:53.491Z,9.98
2017-12-25T05:04:53.509Z,10.03
2017-12-25T05:06:51.618Z,9.93
2017-12-25T05:07:51.036Z,9.95
2017-12-25T05:09:48.467Z,10.03
2017-12-25T05:10:48.536Z,9.99
2017-12-25T05:12:46.513Z,10.14
2017-12-25T05:13:46.936Z,10.03
2017-12-25T05:15:44.874Z,9.99
2017-12-25T05:16:44.859Z,10.02
2017-12-25T05:18:42.811Z,10.00
2017-12-25T05:19:42.409Z,10.03
2017-12-25T05:21:40.873Z,9.99
2017-12-25T05:22:40.460Z,10.14
2017-12-25T05:24:38.943Z,10.07
2017-12-25T05:25:38.388Z,10.11
2017-12-25T05:27:36.404Z,9.99
2017-12-25T05:28:36.332Z,10.00
2017-12-25T05:30:32.323Z,10.14
2017-12-25T05:31:32.796Z,10.11
2017-12-25T05:33:30.216Z,10.07
2017-12-25T05:34:30.206Z,10.02
2017-12-25T05:36:28.746Z,10.10
2017-12-25T05:37:28.177Z,10.02
2017-12-25T05:39:26.624Z,10.02
2017-12-25T05:40:26.083Z,9.98
2017-12-25T05:42:25.070Z,10.00
2017-12-25T05:43:24.002Z,10.03
2017-12-25T05:45:22.983Z,10.00
2017-12-25T05:46:23.002Z,10.03
2017-12-25T05:48:20.055Z,9.96
2017-12-25T05:49:20.014Z,9.98
2017-12-25T05:51:19.459Z,9.98
2017-12-25T05:52:17.934Z,9.90
2017-12-25T05:54:15.976Z,9.99
2017-12-25T05:55:15.970Z,9.96
2017-12-25T05:57:14.429Z,9.90
2017-12-25T05:58:13.898Z,10.00
2017-12-25T06:00:12.007Z,9.88
2017-12-25T06:01:12.882Z,9.99
2017-12-25T06:03:10.930Z,9.95
2017-12-25T06:04:09.966Z,9.93
2017-12-25T06:06:08.413Z,9.89
2017-12-25T06:07:07.947Z,9.93
2017-12-25T06:09:05.926Z,9.90
2017-12-25T06:10:05.904Z,9.89
2017-12-25T06:12:02.875Z,9.95
2017-12-25T06:13:02.873Z,9.90
2017-12-25T06:15:01.329Z,9.92
2017-12-25T06:16:01.866Z,9.89
2017-12-25T06:17:58.897Z,9.90
2017-12-25T06:18:59.357Z,9.96
2017-12-25T06:20:57.810Z,9.96
2017-12-25T06:21:56.746Z,9.96
2017-12-25T06:23:55.697Z,10.00
2017-12-25T06:24:54.782Z,9.90
2017-12-25T06:26:54.244Z,9.89
2017-12-25T06:27:54.736Z,9.89
2017-12-25T06:29:51.276Z,9.85
2017-12-25T06:30:50.774Z,9.93
2017-12-25T06:32:48.757Z,9.92
2017-12-25T06:33:48.715Z,10.02
2017-12-25T06:35:48.182Z,9.88
2017-12-25T06:36:46.756Z,9.89
2017-12-25T06:38:45.263Z,9.82
2017-12-25T06:39:44.712Z,9.88
2017-12-25T06:41:42.669Z,9.90
2017-12-25T06:42:42.626Z,9.89
2017-12-25T06:44:40.620Z,9.89
2017-12-25T06:45:40.572Z,9.85
2017-12-25T06:47:37.543Z,9.90
2017-12-25T06:48:37.554Z,9.89
2017-12-25T06:50:33.434Z,9.90
2017-12-25T06:51:34.010Z,9.84
2017-12-25T06:53:29.418Z,9.90
2017-12-25T06:54:29.383Z,9.84
2017-12-25T06:56:28.875Z,9.88
2017-12-25T06:57:27.527Z,9.89
2017-12-25T06:59:25.491Z,9.85
2017-12-25T07:00:25.472Z,9.77
2017-12-25T07:02:25.879Z,9.78
2017-12-25T07:03:25.896Z,9.80
2017-12-25T07:05:23.843Z,9.77
2017-12-25T07:06:23.833Z,9.84
2017-12-25T07:08:22.293Z,9.81
2017-12-25T07:09:21.766Z,9.78
2017-12-25T07:11:19.782Z,9.78
2017-12-25T07:12:19.788Z,9.85
2017-12-25T07:14:18.654Z,9.81
2017-12-25T07:15:17.702Z,9.81
2017-12-25T07:17:15.652Z,9.85
2017-12-25T07:18:16.663Z,9.78
2017-12-25T07:20:13.654Z,9.84
2017-12-25T07:21:14.178Z,9.80
2017-12-25T07:23:11.561Z,9.81
2017-12-25T07:24:11.603Z,9.88
2017-12-25T07:26:09.511Z,9.85
2017-12-25T07:27:09.497Z,9.81
2017-12-25T07:29:05.511Z,9.80
2017-12-25T07:30:05.461Z,9.78
2017-12-25T07:32:04.917Z,9.71
2017-12-25T07:33:03.552Z,9.74
2017-12-25T07:35:01.478Z,9.77
2017-12-25T07:36:02.044Z,9.77
2017-12-25T07:37:59.529Z,9.75
2017-12-25T07:38:59.550Z,9.80
2017-12-25T07:40:57.488Z,9.78
2017-12-25T07:41:57.451Z,9.89
2017-12-25T07:43:56.382Z,9.81
2017-12-25T07:44:56.313Z,9.88
2017-12-25T07:46:53.430Z,9.82
2017-12-25T07:47:53.953Z,9.80
2017-12-25T07:49:52.888Z,9.80
2017-12-25T07:50:53.367Z,9.78
2017-12-25T07:52:51.437Z,9.78
2017-12-25T07:53:51.352Z,9.81
2017-12-25T07:55:47.484Z,9.81
2017-12-25T07:56:47.466Z,9.92
2017-12-25T07:58:45.507Z,9.82
2017-12-25T07:59:45.487Z,9.81
2017-12-25T08:01:43.467Z,9.88
2017-12-25T08:02:43.438Z,9.90
2017-12-25T08:04:42.440Z,9.89
2017-12-25T08:05:41.402Z,9.88
2017-12-25T08:07:40.335Z,9.92
2017-12-25T08:08:40.368Z,9.90
2017-12-25T08:10:38.918Z,9.89
2017-12-25T08:11:38.402Z,9.89
2017-12-25T08:13:36.407Z,9.90
2017-12-25T08:14:35.901Z,9.89
2017-12-25T08:16:32.362Z,9.89
2017-12-25T08:17:32.362Z,9.96
2017-12-25T08:19:30.323Z,9.88
2017-12-25T08:20:30.306Z,9.93
2017-12-25T08:22:29.250Z,9.93
2017-12-25T08:23:28.506Z,9.93
2017-12-25T08:25:26.465Z,9.85
2017-12-25T08:26:26.430Z,9.85
2017-12-25T08:28:24.403Z,9.92
2017-12-25T08:29:25.894Z,9.98
2017-12-25T08:31:22.324Z,9.90
2017-12-25T08:32:22.290Z,9.96
2017-12-25T08:34:21.235Z,9.90
2017-12-25T08:35:20.334Z,9.96
2017-12-25T08:37:18.298Z,9.96
2017-12-25T08:38:18.273Z,9.93
2017-12-25T08:40:16.250Z,9.85
2017-12-25T08:41:16.229Z,9.93
2017-12-25T08:43:14.172Z,9.92
2017-12-25T08:44:14.188Z,9.89
2017-12-25T08:46:12.249Z,9.85
2017-12-25T08:47:12.205Z,9.92
2017-12-25T08:49:10.231Z,9.88
2017-12-25T08:50:10.698Z,9.93
2017-12-25T08:52:06.119Z,9.90
2017-12-25T08:53:06.085Z,9.92
2017-12-25T08:55:04.543Z,9.93
2017-12-25T08:56:04.022Z,9.93
2017-12-25T08:58:02.545Z,9.88
2017-12-25T08:59:02.483Z,9.95
2017-12-25T09:00:59.893Z,9.93
2017-12-25T09:01:59.903Z,9.93
2017-12-25T09:03:57.837Z,9.90
2017-12-25T09:04:58.330Z,9.96
2017-12-25T09:06:56.295Z,10.00
2017-12-25T09:07:55.887Z,9.99
2017-12-25T09:09:53.868Z,9.92
2017-12-25T09:10:53.845Z,9.93
2017-12-25T09:12:51.825Z,9.92
2017-12-25T09:13:52.717Z,9.92
2017-12-25T09:15:50.243Z,9.93
2017-12-25T09:16:50.230Z,9.90
2017-12-25T09:18:45.716Z,9.95
2017-12-25T09:19:45.658Z,9.98
2017-12-25T09:21:41.618Z,10.08
2017-12-25T09:22:41.606Z,10.07
2017-12-25T09:24:37.586Z,10.08
2017-12-25T09:25:37.566Z,10.11
2017-12-25T09:27:36.509Z,10.03
2017-12-25T09:28:36.000Z,9.95
2017-12-25T09:30:33.494Z,10.00
2017-12-25T09:31:33.495Z,9.96
2017-12-25T09:33:31.451Z,10.10
2017-12-25T09:34:31.454Z,10.14
2017-12-25T09:36:29.366Z,10.18
2017-12-25T09:37:29.892Z,10.25
2017-12-25T09:39:27.338Z,10.20
2017-12-25T09:40:27.837Z,10.14
2017-12-25T09:42:26.273Z,10.10
2017-12-25T09:43:25.795Z,10.07
2017-12-25T09:45:23.208Z,10.21
2017-12-25T09:46:23.179Z,10.21
2017-12-25T09:48:21.124Z,10.20
2017-12-25T09:49:21.127Z,10.21
2017-12-25T09:51:19.132Z,10.25
2017-12-25T09:52:19.134Z,10.25
2017-12-25T09:54:16.625Z,10.18
2017-12-25T09:55:15.074Z,10.23
2017-12-25T09:57:13.018Z,10.17
2017-12-25T09:58:13.005Z,10.23
2017-12-25T10:00:11.516Z,10.36
2017-12-25T10:01:11.077Z,10.29
2017-12-25T10:03:09.011Z,10.31
2017-12-25T10:04:09.059Z,10.29
2017-12-25T10:06:07.978Z,10.26
2017-12-25T10:07:06.975Z,10.17
2017-12-25T10:09:04.947Z,10.17
2017-12-25T10:10:04.924Z,10.20
2017-12-25T10:12:02.850Z,10.17
2017-12-25T10:13:02.859Z,10.20
2017-12-25T10:14:59.826Z,10.15
2017-12-25T10:15:58.811Z,10.17
2017-12-25T10:17:56.781Z,10.21
2017-12-25T10:18:56.765Z,10.31
2017-12-25T10:20:52.732Z,10.36
2017-12-25T10:21:52.660Z,10.32
2017-12-25T10:23:50.608Z,10.39
2017-12-25T10:24:51.123Z,10.44
2017-12-25T10:26:48.594Z,10.36
2017-12-25T10:27:48.561Z,10.36
2017-12-25T10:29:47.553Z,10.38
2017-12-25T10:30:46.622Z,10.41
2017-12-25T10:32:46.082Z,10.42
2017-12-25T10:33:45.649Z,10.41
2017-12-25T10:35:42.695Z,10.55
2017-12-25T10:36:42.654Z,10.54
2017-12-25T10:38:40.693Z,10.52
2017-12-25T10:39:40.694Z,10.55
2017-12-25T10:41:39.698Z,10.49
2017-12-25T10:42:38.753Z,10.52
2017-12-25T10:44:38.197Z,10.47
2017-12-25T10:45:36.821Z,10.42
2017-12-25T10:47:32.732Z,10.38
2017-12-25T10:48:32.745Z,10.35
2017-12-25T10:50:28.722Z,10.41
2017-12-25T10:51:28.730Z,10.26
2017-12-25T10:53:26.782Z,10.35
2017-12-25T10:54:27.670Z,10.36
2017-12-25T10:56:23.255Z,10.41
2017-12-25T10:57:23.271Z,10.36
2017-12-25T10:59:19.669Z,10.23
2017-12-25T11:00:18.664Z,10.28
2017-12-25T11:02:16.140Z,10.28
2017-12-25T11:03:15.484Z,10.42
2017-12-25T11:05:13.571Z,10.38
2017-12-25T11:06:14.431Z,10.36
2017-12-25T11:08:12.027Z,10.51
2017-12-25T11:09:11.569Z,10.46
2017-12-25T11:11:07.419Z,10.52
2017-12-25T11:12:07.410Z,10.61
2017-12-25T11:14:03.405Z,10.65
2017-12-25T11:15:04.370Z,10.63
2017-12-25T11:17:01.285Z,10.72
2017-12-25T11:18:01.295Z,10.72
2017-12-25T11:20:00.244Z,10.69
2017-12-25T11:20:59.351Z,10.77
2017-12-25T11:22:57.398Z,10.92
2017-12-25T11:23:57.406Z,10.84
2017-12-25T11:25:55.854Z,10.94
2017-12-25T11:26:55.327Z,10.85
2017-12-25T11:28:53.288Z,10.94
2017-12-25T11:29:53.786Z,10.91
2017-12-25T11:31:51.289Z,10.91
2017-12-25T11:32:51.235Z,10.94
2017-12-25T11:34:49.694Z,10.97
2017-12-25T11:35:49.685Z,10.88
2017-12-25T11:37:47.155Z,10.91
2017-12-25T11:38:47.141Z,10.88
2017-12-25T11:40:45.602Z,10.83
2017-12-25T11:41:46.095Z,10.90
2017-12-25T11:43:43.641Z,10.91
2017-12-25T11:44:43.223Z,11.02
2017-12-25T11:46:41.169Z,11.09
2017-12-25T11:47:41.167Z,11.13
2017-12-25T11:49:39.615Z,11.16
2017-12-25T11:50:39.108Z,11.21
2017-12-25T11:52:37.586Z,11.05
2017-12-25T11:53:37.176Z,10.94
2017-12-25T11:55:35.130Z,10.92
2017-12-25T11:56:35.613Z,11.02
2017-12-25T11:58:33.079Z,11.02
2017-12-25T11:59:33.060Z,11.08
2017-12-25T12:01:32.009Z,11.15
2017-12-25T12:02:30.984Z,11.24
2017-12-25T12:04:29.948Z,11.21
2017-12-25T12:05:29.035Z,11.27
2017-12-25T12:07:27.113Z,11.23
2017-12-25T12:08:28.008Z,11.13
2017-12-25T12:10:25.586Z,11.15
2017-12-25T12:11:25.576Z,11.08
2017-12-25T12:13:23.531Z,10.98
2017-12-25T12:14:23.143Z,10.94
2017-12-25T12:16:22.010Z,10.90
2017-12-25T12:17:21.581Z,10.90
2017-12-25T12:19:19.032Z,10.94
2017-12-25T12:20:19.535Z,10.91
2017-12-25T12:22:17.003Z,10.90
2017-12-25T12:23:16.951Z,10.91
2017-12-25T12:25:16.423Z,10.95
2017-12-25T12:26:15.970Z,10.94
2017-12-25T12:28:12.967Z,10.87
2017-12-25T12:29:12.974Z,10.95
2017-12-25T12:31:10.990Z,10.92
2017-12-25T12:32:10.995Z,10.80
2017-12-25T12:34:08.925Z,10.70
2017-12-25T12:35:08.939Z,10.61
2017-12-25T12:37:04.911Z,10.61
2017-12-25T12:38:04.898Z,10.59
2017-12-25T12:40:00.838Z,10.84
2017-12-25T12:41:00.827Z,10.75
2017-12-25T12:42:56.825Z,10.85
2017-12-25T12:43:57.814Z,10.94
2017-12-25T12:45:52.790Z,11.10
2017-12-25T12:46:53.303Z,11.06
2017-12-25T12:48:48.684Z,11.12
2017-12-25T12:49:49.199Z,11.15
2017-12-25T12:51:47.177Z,11.18
2017-12-25T12:52:46.648Z,11.21
2017-12-25T12:54:44.561Z,11.15
2017-12-25T12:55:45.091Z,11.12
2017-12-25T12:57:44.017Z,10.91
2017-12-25T12:58:42.624Z,10.84
2017-12-25T13:00:40.545Z,10.84
2017-12-25T13:01:41.080Z,10.63
2017-12-25T13:03:38.493Z,10.63
2017-12-25T13:04:38.993Z,10.54
2017-12-25T13:06:36.462Z,10.46
2017-12-25T13:07:36.420Z,10.51
2017-12-25T13:09:36.385Z,10.38
2017-12-25T13:10:36.376Z,10.35
2017-12-25T13:12:32.914Z,10.39
2017-12-25T13:13:32.917Z,10.35
2017-12-25T13:15:30.335Z,10.33
2017-12-25T13:16:30.360Z,10.39
2017-12-25T13:18:28.843Z,10.32
2017-12-25T13:19:28.418Z,10.25
2017-12-25T13:21:24.310Z,10.32
2017-12-25T13:22:24.322Z,10.28
2017-12-25T13:24:22.783Z,10.33
2017-12-25T13:25:22.256Z,10.31
2017-12-25T13:27:20.740Z,10.36
2017-12-25T13:28:20.214Z,10.42
2017-12-25T13:30:19.161Z,10.46
2017-12-25T13:31:19.165Z,10.46
2017-12-25T13:33:16.732Z,10.58
2017-12-25T13:34:16.190Z,10.57
2017-12-25T13:36:14.180Z,10.47
2017-12-25T13:37:14.139Z,10.59
2017-12-25T13:39:12.070Z,10.41
2017-12-25T13:40:12.086Z,10.38
2017-12-25T13:42:11.015Z,10.41
2017-12-25T13:43:10.120Z,10.39
2017-12-25T13:45:08.199Z,10.33
2017-12-25T13:46:08.175Z,10.25
2017-12-25T13:48:06.164Z,10.17
2017-12-25T13:49:06.650Z,10.20
2017-12-25T13:51:05.080Z,10.14
2017-12-25T13:52:04.575Z,10.17
2017-12-25T13:54:02.504Z,10.20
2017-12-25T13:55:03.982Z,10.25
2017-12-25T13:57:01.033Z,10.18
2017-12-25T13:58:00.041Z,10.23
2017-12-25T13:59:58.507Z,10.20
2017-12-25T14:00:58.001Z,10.23
2017-12-25T14:02:55.945Z,10.08
2017-12-25T14:03:56.462Z,10.17
2017-12-25T14:05:54.931Z,10.07
2017-12-25T14:06:54.901Z,10.07
2017-12-25T14:08:53.453Z,10.11
2017-12-25T14:09:51.962Z,10.10
2017-12-25T14:11:50.389Z,10.05
2017-12-25T14:12:49.883Z,9.96
2017-12-25T14:14:48.366Z,9.93
2017-12-25T14:15:47.827Z,9.92
2017-12-25T14:17:46.777Z,9.90
2017-12-25T14:18:46.291Z,9.93
2017-12-25T14:20:44.236Z,9.98
2017-12-25T14:21:44.232Z,9.95
2017-12-25T14:23:42.176Z,9.85
2017-12-25T14:24:41.647Z,9.85
2017-12-25T14:26:39.595Z,9.88
2017-12-25T14:27:39.589Z,9.82
2017-12-25T14:29:37.530Z,9.72
2017-12-25T14:30:37.516Z,9.66
2017-12-25T14:32:36.973Z,9.59
2017-12-25T14:33:35.547Z,9.59
2017-12-25T14:35:33.583Z,9.55
2017-12-25T14:36:33.593Z,9.42
2017-12-25T14:38:33.546Z,9.53
2017-12-25T14:39:31.624Z,9.48
2017-12-25T14:41:30.103Z,9.50
2017-12-25T14:42:29.534Z,9.41
2017-12-25T14:44:28.524Z,9.45
2017-12-25T14:45:27.571Z,9.44
2017-12-25T14:47:26.044Z,9.44
2017-12-25T14:48:25.618Z,9.34
2017-12-25T14:50:23.609Z,9.26
2017-12-25T14:51:24.071Z,9.30
2017-12-25T14:53:22.541Z,9.16
2017-12-25T14:54:21.523Z,9.16
2017-12-25T14:56:19.500Z,9.26
2017-12-25T14:57:19.467Z,9.16
2017-12-25T14:59:18.430Z,9.19
2017-12-25T15:00:17.417Z,9.12
2017-12-25T15:02:15.475Z,9.21
2017-12-25T15:03:15.482Z,9.17
2017-12-25T15:05:13.366Z,9.16
2017-12-25T15:06:12.416Z,9.23
2017-12-25T15:08:10.394Z,9.14
2017-12-25T15:09:10.413Z,9.20
2017-12-25T15:11:09.314Z,9.17
2017-12-25T15:12:08.287Z,9.14
2017-12-25T15:14:07.229Z,9.16
2017-12-25T15:15:06.232Z,9.11
2017-12-25T15:17:04.197Z,9.17
2017-12-25T15:18:04.153Z,9.12
2017-12-25T15:20:02.209Z,9.20
2017-12-25T15:21:02.192Z,9.14
2017-12-25T15:22:58.655Z,8.92
2017-12-25T15:23:58.146Z,8.97
2017-12-25T15:25:55.083Z,9.00
2017-12-25T15:26:54.094Z,8.97
2017-12-25T15:28:50.038Z,8.86
2017-12-25T15:29:50.026Z,8.82
2017-12-25T15:31:46.477Z,8.86
2017-12-25T15:32:45.972Z,8.85
2017-12-25T15:34:44.426Z,8.94
2017-12-25T15:35:44.016Z,8.86
2017-12-25T15:37:41.970Z,8.86
2017-12-25T15:38:41.942Z,8.90
2017-12-25T15:40:39.834Z,8.77
2017-12-25T15:41:39.842Z,8.77
2017-12-25T15:43:37.802Z,8.72
2017-12-25T15:44:37.792Z,8.77
2017-12-25T15:46:35.849Z,8.64
2017-12-25T15:47:35.887Z,8.62
2017-12-25T15:49:33.892Z,8.57
2017-12-25T15:50:33.883Z,8.53
2017-12-25T15:52:32.858Z,8.57
2017-12-25T15:53:32.833Z,8.43
2017-12-25T15:55:28.897Z,8.46
2017-12-25T15:56:27.883Z,8.35
2017-12-25T15:58:24.347Z,8.36
2017-12-25T15:59:23.834Z,8.28
2017-12-25T16:01:19.730Z,8.34
2017-12-25T16:02:20.278Z,8.40
2017-12-25T16:04:17.668Z,8.34
2017-12-25T16:05:17.649Z,8.42
2017-12-25T16:07:16.131Z,8.26
2017-12-25T16:08:15.643Z,8.29
2017-12-25T16:10:12.559Z,8.28
2017-12-25T16:11:12.568Z,8.11
2017-12-25T16:13:08.498Z,8.07
2017-12-25T16:14:09.005Z,8.09
2017-12-25T16:16:04.456Z,7.95
2017-12-25T16:17:04.958Z,7.91
2017-12-25T16:19:00.401Z,7.88
2017-12-25T16:20:00.373Z,7.86
2017-12-25T16:21:58.350Z,7.83
2017-12-25T16:22:58.836Z,7.86
2017-12-25T16:24:57.310Z,7.80
2017-12-25T16:25:56.337Z,7.82
2017-12-25T16:27:55.304Z,7.85
2017-12-25T16:28:55.297Z,7.80
2017-12-25T16:30:52.860Z,7.85
2017-12-25T16:31:52.327Z,7.75
2017-12-25T16:33:48.773Z,7.73
2017-12-25T16:34:48.250Z,7.68
2017-12-25T16:36:44.756Z,7.56
2017-12-25T16:37:44.182Z,7.61
2017-12-25T16:39:40.638Z,7.64
2017-12-25T16:40:41.071Z,7.59
2017-12-25T16:42:36.097Z,7.51
2017-12-25T16:43:36.063Z,7.48
2017-12-25T16:45:34.102Z,7.55
2017-12-25T16:46:34.121Z,7.61
2017-12-25T16:48:32.584Z,7.61
2017-12-25T16:49:32.042Z,7.58
2017-12-25T16:51:28.012Z,7.64
2017-12-25T16:52:28.498Z,7.68
2017-12-25T16:54:26.413Z,7.59
2017-12-25T16:55:25.876Z,7.61
2017-12-25T16:57:21.807Z,7.51
2017-12-25T16:58:21.801Z,7.54
2017-12-25T17:00:19.840Z,7.55
2017-12-25T17:01:19.854Z,7.45
2017-12-25T17:03:18.295Z,7.40
2017-12-25T17:04:17.800Z,7.41
2017-12-25T17:06:13.721Z,7.39
2017-12-25T17:07:13.732Z,7.31
2017-12-25T17:09:09.705Z,7.39
2017-12-25T17:10:09.661Z,7.30
2017-12-25T17:12:07.597Z,7.31
2017-12-25T17:13:07.590Z,7.30
2017-12-25T17:15:05.644Z,7.41
2017-12-25T17:16:05.627Z,7.40
2017-12-25T17:18:03.609Z,7.48
2017-12-25T17:19:03.577Z,7.44
2017-12-25T17:21:01.514Z,7.49
2017-12-25T17:22:01.498Z,7.54
2017-12-25T17:23:59.518Z,7.47
2017-12-25T17:24:59.515Z,7.56
2017-12-25T17:26:57.968Z,7.51
2017-12-25T17:27:57.573Z,7.52
2017-12-25T17:29:57.531Z,7.44
2017-12-25T17:30:55.610Z,7.47
2017-12-25T17:32:54.108Z,7.47
2017-12-25T17:33:54.490Z,7.47
2017-12-25T17:35:51.589Z,7.33
2017-12-25T17:36:51.605Z,7.29
2017-12-25T17:38:50.059Z,7.36
2017-12-25T17:39:49.516Z,7.34
2017-12-25T17:41:47.592Z,7.31
2017-12-25T17:42:47.593Z,7.27
2017-12-25T17:44:46.576Z,7.29
2017-12-25T17:45:45.674Z,7.27
2017-12-25T17:47:44.135Z,7.23
2017-12-25T17:48:43.607Z,7.11
2017-12-25T17:50:42.077Z,7.13
2017-12-25T17:51:41.501Z,7.11
2017-12-25T17:53:39.951Z,7.09
2017-12-25T17:54:39.447Z,7.11
2017-12-25T17:56:37.388Z,7.13
2017-12-25T17:57:37.428Z,7.15
2017-12-25T17:59:37.350Z,7.13
2017-12-25T18:00:36.347Z,7.15
2017-12-25T18:02:33.880Z,7.08
2017-12-25T18:03:33.357Z,7.11
2017-12-25T18:05:31.320Z,7.00
2017-12-25T18:06:31.312Z,7.09
2017-12-25T18:08:27.281Z,6.97
2017-12-25T18:09:27.238Z,7.09
2017-12-25T18:11:25.236Z,6.97
2017-12-25T18:12:26.202Z,6.95
2017-12-25T18:14:21.698Z,6.86
2017-12-25T18:15:21.176Z,6.90
2017-12-25T18:17:19.227Z,6.80
2017-12-25T18:18:20.122Z,6.85
2017-12-25T18:20:17.173Z,6.85
2017-12-25T18:21:17.713Z,6.93
2017-12-25T18:23:15.113Z,6.93
2017-12-25T18:24:15.107Z,6.83
2017-12-25T18:26:11.051Z,6.94
2017-12-25T18:27:11.557Z,7.00
2017-12-25T18:29:09.996Z,6.93
2017-12-25T18:30:08.985Z,7.01
2017-12-25T18:32:04.956Z,7.04
2017-12-25T18:33:04.935Z,7.01
2017-12-25T18:35:03.419Z,7.01
2017-12-25T18:36:02.952Z,6.88
2017-12-25T18:38:00.880Z,6.98
2017-12-25T18:39:00.900Z,7.03
2017-12-25T18:40:57.353Z,7.09
2017-12-25T18:41:56.785Z,7.05
2017-12-25T18:43:55.246Z,6.98
2017-12-25T18:44:54.702Z,7.01
2017-12-25T18:46:52.655Z,7.13
2017-12-25T18:47:52.651Z,7.09
2017-12-25T18:49:50.701Z,7.21
2017-12-25T18:50:51.615Z,7.11
2017-12-25T18:52:49.655Z,7.04
2017-12-25T18:53:48.774Z,6.98
2017-12-25T18:55:47.181Z,6.94
2017-12-25T18:56:47.177Z,6.93
2017-12-25T18:58:44.618Z,7.01
2017-12-25T18:59:44.582Z,7.00
2017-12-25T19:01:42.569Z,7.00
2017-12-25T19:02:42.514Z,6.88
2017-12-25T19:04:38.984Z,6.90
2017-12-25T19:05:39.017Z,6.82
2017-12-25T19:07:36.425Z,6.80
2017-12-25T19:08:36.378Z,6.90
2017-12-25T19:10:34.447Z,6.83
2017-12-25T19:11:35.332Z,6.86
2017-12-25T19:13:32.416Z,6.86
2017-12-25T19:14:33.442Z,6.79
2017-12-25T19:16:31.364Z,6.83
2017-12-25T19:17:31.349Z,6.73
2017-12-25T19:19:29.933Z,6.79
2017-12-25T19:20:29.427Z,6.76
2017-12-25T19:22:26.951Z,6.79
2017-12-25T19:23:27.461Z,6.73
2017-12-25T19:25:23.447Z,6.65
2017-12-25T19:26:23.484Z,6.60
2017-12-25T19:28:21.926Z,6.64
2017-12-25T19:29:21.531Z,6.61